Emporia Greensville Regional Airport


Codes: KEMV/
Name: Emporia Greensville Regional Airport
City: Emporia
Country: United States
Elevation: 127 ft.

Photos at Emporia Greensville Regional Airport


   Photos courtesy of SpottingLog. You can add your own sightings and photos by signing up for a free trial today.



No photos found.

Weather at Emporia Greensville Regional Airport


Time (UTC)DescriptionTempratureWindCloud coverageVisibilityPressureHumidity
19-Apr-2024 06:00Clear Sky16°C7 mph, E3%10000m1019hPa80%
19-Apr-2024 09:00Scattered Clouds14°C7 mph, E33%10000m1019hPa84%
19-Apr-2024 12:00Broken Clouds13°C7 mph, E75%10000m1020hPa82%
19-Apr-2024 15:00Overcast Clouds18°C7 mph, SE88%10000m1018hPa63%
19-Apr-2024 18:00Overcast Clouds23°C4 mph, SW93%10000m1017hPa52%
19-Apr-2024 21:00Overcast Clouds24°C4 mph, S100%10000m1014hPa55%
20-Apr-2024 00:00Overcast Clouds20°C7 mph, SE99%10000m1014hPa71%
20-Apr-2024 03:00Light Rain15°C7 mph, SE96%10000m1015hPa87%
20-Apr-2024 06:00Overcast Clouds15°C4 mph, S98%10000m1015hPa96%
20-Apr-2024 09:00Overcast Clouds16°C2 mph, NW99%10000m1015hPa97%
20-Apr-2024 12:00Overcast Clouds15°C9 mph, NE100%10000m1017hPa87%
20-Apr-2024 15:00Overcast Clouds16°C7 mph, N100%10000m1018hPa66%
20-Apr-2024 18:00Overcast Clouds21°C7 mph, NW93%10000m1017hPa50%
20-Apr-2024 21:00Broken Clouds23°C7 mph, NW78%10000m1014hPa35%
21-Apr-2024 00:00Broken Clouds17°C7 mph, NW56%10000m1017hPa48%
21-Apr-2024 03:00Broken Clouds14°C9 mph, N63%10000m1018hPa54%
21-Apr-2024 06:00Broken Clouds12°C7 mph, NE81%10000m1019hPa58%
21-Apr-2024 09:00Overcast Clouds9°C7 mph, N100%10000m1019hPa62%
21-Apr-2024 12:00Overcast Clouds10°C7 mph, NE100%10000m1021hPa58%
21-Apr-2024 15:00Overcast Clouds14°C4 mph, NE100%10000m1020hPa44%
21-Apr-2024 18:00Overcast Clouds19°C2 mph, S100%10000m1018hPa35%
21-Apr-2024 21:00Overcast Clouds18°C7 mph, S100%10000m1016hPa39%
22-Apr-2024 00:00Overcast Clouds13°C9 mph, S100%10000m1017hPa72%
22-Apr-2024 03:00Light Rain11°C4 mph, SE100%10000m1017hPa89%
22-Apr-2024 06:00Light Rain11°C2 mph, E100%10000m1016hPa91%
22-Apr-2024 09:00Overcast Clouds10°C4 mph, E100%10000m1016hPa93%
22-Apr-2024 12:00Overcast Clouds11°C4 mph, NE100%10000m1017hPa85%
22-Apr-2024 15:00Scattered Clouds16°C7 mph, NE25%10000m1018hPa45%
22-Apr-2024 18:00Scattered Clouds19°C7 mph, NE27%10000m1016hPa33%
22-Apr-2024 21:00Overcast Clouds18°C4 mph, N91%10000m1015hPa34%
23-Apr-2024 00:00Overcast Clouds13°C9 mph, E93%10000m1017hPa56%
23-Apr-2024 03:00Overcast Clouds10°C4 mph, SE100%10000m1019hPa65%
23-Apr-2024 06:00Broken Clouds8°C4 mph, SE60%10000m1019hPa77%
23-Apr-2024 09:00Clear Sky7°C4 mph, S0%10000m1020hPa77%
23-Apr-2024 12:00Clear Sky11°C2 mph, S0%10000m1021hPa65%
23-Apr-2024 15:00Clear Sky17°C7 mph, SE1%10000m1021hPa40%
23-Apr-2024 18:00Clear Sky20°C7 mph, SE3%10000m1019hPa31%
23-Apr-2024 21:00Scattered Clouds20°C9 mph, S30%10000m1017hPa32%
24-Apr-2024 00:00Few Clouds15°C7 mph, S22%10000m1018hPa55%
24-Apr-2024 03:00Broken Clouds12°C9 mph, SE57%10000m1018hPa70%